Time,TemperatureF,DewpointF,PressureIn,WindDirection,WindDirectionDegrees,WindSpeedMPH,WindSpeedGustMPH,Humidity,HourlyPrecipIn,Conditions,Clouds,dailyrainin,SoftwareType,DateUTC
2013-01-07 00:00:00,33.7,26.5,30.08,NNE,23,4.9,4.9,75,0.00,,,0.00,WUHU216HW,2013-01-07 08:00:00,
2013-01-07 00:05:00,33.7,26.2,30.08,NNE,23,4.5,4.9,74,0.00,,,0.00,WUHU216HW,2013-01-07 08:05:00,
2013-01-07 00:10:00,33.7,26.2,30.07,NNE,23,4.0,4.5,74,0.00,,,0.00,WUHU216HW,2013-01-07 08:10:00,
2013-01-07 00:15:00,33.7,26.2,30.07,NE,45,3.4,4.7,74,0.00,,,0.00,WUHU216HW,2013-01-07 08:15:00,
2013-01-07 00:20:00,33.8,26.3,30.07,NE,45,1.3,4.7,74,0.00,,,0.00,WUHU216HW,2013-01-07 08:20:00,
2013-01-07 00:25:00,33.8,26.3,30.07,East,90,2.7,4.7,74,0.00,,,0.00,WUHU216HW,2013-01-07 08:25:00,
2013-01-07 00:30:00,33.8,26.3,30.07,North,0,0.7,4.3,74,0.00,,,0.00,WUHU216HW,2013-01-07 08:30:00,
2013-01-07 00:35:00,33.8,26.0,30.07,NNE,23,0.4,4.3,73,0.00,,,0.00,WUHU216HW,2013-01-07 08:35:00,
2013-01-07 00:40:00,33.8,26.3,30.06,NNE,23,1.6,4.0,74,0.00,,,0.00,WUHU216HW,2013-01-07 08:40:00,
2013-01-07 00:45:00,33.7,26.2,30.07,East,90,3.6,3.8,74,0.00,,,0.00,WUHU216HW,2013-01-07 08:45:00,
2013-01-07 00:51:00,33.8,26.3,30.06,ENE,68,1.6,4.0,74,0.00,,,0.00,WUHU216HW,2013-01-07 08:51:00,
2013-01-07 00:56:00,33.7,26.2,30.06,NE,45,2.9,4.0,74,0.00,,,0.00,WUHU216HW,2013-01-07 08:56:00,
2013-01-07 01:01:00,33.8,26.3,30.06,NE,45,5.6,5.6,74,0.00,,,0.00,WUHU216HW,2013-01-07 09:01:00,
2013-01-07 01:06:00,33.8,26.0,30.06,ENE,68,5.4,6.9,73,0.00,,,0.00,WUHU216HW,2013-01-07 09:06:00,
2013-01-07 01:11:00,34.0,26.2,30.06,ENE,68,3.8,6.9,73,0.00,,,0.00,WUHU216HW,2013-01-07 09:11:00,
2013-01-07 01:16:00,34.2,26.4,30.05,East,90,4.3,6.3,73,0.00,,,0.00,WUHU216HW,2013-01-07 09:16:00,
2013-01-07 01:21:00,34.4,26.6,30.05,ENE,68,5.4,6.9,73,0.00,,,0.00,WUHU216HW,2013-01-07 09:21:00,
2013-01-07 01:26:00,34.7,26.9,30.05,East,90,2.5,10.3,73,0.00,,,0.00,WUHU216HW,2013-01-07 09:26:00,
2013-01-07 01:31:00,34.9,27.1,30.05,East,90,4.5,10.3,73,0.00,,,0.00,WUHU216HW,2013-01-07 09:31:00,
2013-01-07 01:35:00,34.9,27.1,30.05,East,90,4.7,7.6,73,0.00,,,0.00,WUHU216HW,2013-01-07 09:35:00,
2013-01-07 01:40:00,35.1,26.9,30.05,East,90,4.0,8.9,72,0.00,,,0.00,WUHU216HW,2013-01-07 09:40:00,
2013-01-07 01:45:00,35.3,27.1,30.05,East,90,2.5,8.9,72,0.00,,,0.00,WUHU216HW,2013-01-07 09:45:00,
2013-01-07 01:50:00,35.3,27.1,30.06,ENE,68,3.1,8.3,72,0.00,,,0.00,WUHU216HW,2013-01-07 09:50:00,
2013-01-07 01:55:00,35.3,27.1,30.05,NE,45,3.8,6.9,72,0.00,,,0.00,WUHU216HW,2013-01-07 09:55:00,
2013-01-07 02:00:00,35.5,27.3,30.05,East,90,4.7,8.1,72,0.00,,,0.00,WUHU216HW,2013-01-07 10:00:00,
2013-01-07 02:05:00,35.6,27.2,30.06,ENE,68,4.0,8.1,71,0.00,,,0.00,WUHU216HW,2013-01-07 10:05:00,
2013-01-07 02:10:00,35.6,27.5,30.06,North,0,3.4,4.7,72,0.00,,,0.00,WUHU216HW,2013-01-07 10:10:00,
2013-01-07 02:16:00,35.6,27.5,30.06,North,0,2.7,4.9,72,0.00,,,0.00,WUHU216HW,2013-01-07 10:16:00,
2013-01-07 02:20:00,35.6,27.2,30.06,East,90,1.1,4.9,71,0.00,,,0.00,WUHU216HW,2013-01-07 10:20:00,
2013-01-07 02:25:00,35.3,27.1,30.07,NW,315,0.2,4.9,72,0.00,,,0.00,WUHU216HW,2013-01-07 10:25:00,
2013-01-07 02:30:00,35.1,27.3,30.08,NW,315,1.1,4.9,73,0.00,,,0.00,WUHU216HW,2013-01-07 10:30:00,
2013-01-07 02:35:00,35.1,27.3,30.07,East,90,8.1,8.9,73,0.00,,,0.00,WUHU216HW,2013-01-07 10:35:00,
2013-01-07 02:40:00,35.6,27.5,30.08,ENE,68,2.5,9.6,72,0.00,,,0.00,WUHU216HW,2013-01-07 10:40:00,
2013-01-07 02:45:00,35.8,27.4,30.08,NNW,338,4.0,9.6,71,0.00,,,0.00,WUHU216HW,2013-01-07 10:45:00,
2013-01-07 02:50:00,35.8,27.4,30.08,East,90,5.6,7.8,71,0.00,,,0.00,WUHU216HW,2013-01-07 10:50:00,
2013-01-07 02:55:00,35.6,27.5,30.08,NNE,23,4.5,7.8,72,0.00,,,0.00,WUHU216HW,2013-01-07 10:55:00,
2013-01-07 03:00:00,35.6,27.5,30.07,East,90,5.8,7.2,72,0.00,,,0.00,WUHU216HW,2013-01-07 11:00:00,
2013-01-07 03:05:00,35.6,27.8,30.07,East,90,6.0,8.5,73,0.00,,,0.00,WUHU216HW,2013-01-07 11:05:00,
2013-01-07 03:10:00,35.8,28.0,30.06,North,0,4.9,9.6,73,0.00,,,0.00,WUHU216HW,2013-01-07 11:10:00,
2013-01-07 03:15:00,36.2,28.4,30.05,ENE,68,9.4,9.6,73,0.00,,,0.00,WUHU216HW,2013-01-07 11:15:00,
2013-01-07 03:20:00,36.4,28.5,30.06,ENE,68,7.4,10.5,73,0.00,,,0.00,WUHU216HW,2013-01-07 11:20:00,
2013-01-07 03:25:00,36.2,28.0,30.05,East,90,9.2,10.5,72,0.00,,,0.00,WUHU216HW,2013-01-07 11:25:00,
2013-01-07 03:30:00,36.2,28.4,30.06,North,0,4.7,10.3,73,0.00,,,0.00,WUHU216HW,2013-01-07 11:30:00,
2013-01-07 03:35:00,36.2,28.0,30.05,North,0,4.9,10.3,72,0.00,,,0.00,WUHU216HW,2013-01-07 11:35:00,
2013-01-07 03:40:00,36.0,28.2,30.04,ENE,68,2.5,5.6,73,0.00,,,0.00,WUHU216HW,2013-01-07 11:40:00,
2013-01-07 03:45:00,35.6,27.8,30.05,NW,315,5.4,5.8,73,0.00,,,0.00,WUHU216HW,2013-01-07 11:45:00,
2013-01-07 03:50:00,35.3,27.5,30.04,East,90,4.0,5.8,73,0.00,,,0.00,WUHU216HW,2013-01-07 11:50:00,
2013-01-07 03:55:00,35.3,27.7,30.05,NNW,338,1.6,5.4,74,0.00,,,0.00,WUHU216HW,2013-01-07 11:55:00,
2013-01-07 04:00:00,35.3,28.1,30.03,ENE,68,4.3,7.2,75,0.00,,,0.00,WUHU216HW,2013-01-07 12:00:00,
2013-01-07 04:05:00,35.3,28.5,30.04,NNE,23,4.9,7.2,76,0.00,,,0.00,WUHU216HW,2013-01-07 12:05:00,
2013-01-07 04:10:00,35.1,28.5,30.04,North,0,3.1,6.3,77,0.00,,,0.00,WUHU216HW,2013-01-07 12:10:00,
2013-01-07 04:15:00,35.3,29.1,30.03,NE,45,5.1,8.1,78,0.00,,,0.00,WUHU216HW,2013-01-07 12:15:00,
2013-01-07 04:20:00,35.5,29.3,30.04,NW,315,5.1,8.1,78,0.00,,,0.00,WUHU216HW,2013-01-07 12:20:00,
2013-01-07 04:25:00,35.3,29.1,30.04,ENE,68,6.5,6.5,78,0.00,,,0.00,WUHU216HW,2013-01-07 12:25:00,
2013-01-07 04:30:00,35.3,29.3,30.04,NNW,338,4.7,9.8,79,0.00,,,0.00,WUHU216HW,2013-01-07 12:30:00,
2013-01-07 04:35:00,35.3,29.3,30.03,East,90,5.4,9.8,79,0.00,,,0.00,WUHU216HW,2013-01-07 12:35:00,
2013-01-07 04:40:00,35.6,29.7,30.03,ENE,68,2.2,10.7,79,0.00,,,0.00,WUHU216HW,2013-01-07 12:40:00,
2013-01-07 04:45:00,35.6,29.7,30.04,NNW,338,5.6,10.7,79,0.00,,,0.00,WUHU216HW,2013-01-07 12:45:00,
2013-01-07 04:50:00,35.5,29.5,30.04,NNE,23,6.9,6.9,79,0.00,,,0.00,WUHU216HW,2013-01-07 12:50:00,
2013-01-07 04:56:00,35.5,29.9,30.04,ENE,68,4.0,7.4,80,0.00,,,0.00,WUHU216HW,2013-01-07 12:56:00,
2013-01-07 05:00:00,35.3,29.7,30.03,East,90,3.4,8.3,80,0.00,,,0.00,WUHU216HW,2013-01-07 13:00:00,
2013-01-07 05:05:00,35.5,29.9,30.04,ENE,68,4.0,8.3,80,0.00,,,0.00,WUHU216HW,2013-01-07 13:05:00,
2013-01-07 05:10:00,35.5,29.9,30.04,NE,45,5.1,6.0,80,0.00,,,0.00,WUHU216HW,2013-01-07 13:10:00,
2013-01-07 05:15:00,35.6,30.3,30.03,East,90,4.9,8.7,81,0.00,,,0.00,WUHU216HW,2013-01-07 13:15:00,
2013-01-07 05:20:00,35.6,30.3,30.02,East,90,6.7,8.7,81,0.00,,,0.00,WUHU216HW,2013-01-07 13:20:00,
2013-01-07 05:25:00,35.8,30.2,30.02,ENE,68,5.4,10.7,80,0.00,,,0.00,WUHU216HW,2013-01-07 13:25:00,
2013-01-07 05:30:00,36.0,30.4,30.03,East,90,9.8,10.7,80,0.00,,,0.00,WUHU216HW,2013-01-07 13:30:00,
2013-01-07 05:35:00,35.6,30.1,30.03,NE,45,5.4,9.8,80,0.00,,,0.00,WUHU216HW,2013-01-07 13:35:00,
2013-01-07 05:40:00,35.5,30.2,30.03,NE,45,1.8,9.8,81,0.00,,,0.00,WUHU216HW,2013-01-07 13:40:00,
2013-01-07 05:45:00,35.3,30.0,30.03,East,90,4.5,6.3,81,0.00,,,0.00,WUHU216HW,2013-01-07 13:45:00,
2013-01-07 05:50:00,35.3,30.0,30.03,NE,45,4.0,6.3,81,0.00,,,0.00,WUHU216HW,2013-01-07 13:50:00,
2013-01-07 05:55:00,35.1,30.1,30.04,ENE,68,3.6,5.4,82,0.00,,,0.00,WUHU216HW,2013-01-07 13:55:00,
2013-01-07 06:00:00,35.1,30.1,30.03,East,90,4.9,6.7,82,0.00,,,0.00,WUHU216HW,2013-01-07 14:00:00,
2013-01-07 06:05:00,35.1,30.1,30.02,NE,45,6.5,9.6,82,0.00,,,0.00,WUHU216HW,2013-01-07 14:05:00,
2013-01-07 06:10:00,35.3,30.2,30.02,ENE,68,1.6,9.6,82,0.00,,,0.00,WUHU216HW,2013-01-07 14:10:00,
2013-01-07 06:15:00,35.3,30.2,30.02,NE,45,4.9,7.8,82,0.00,,,0.00,WUHU216HW,2013-01-07 14:15:00,
2013-01-07 06:20:00,35.6,30.6,30.01,NNE,23,6.9,10.1,82,0.00,,,0.00,WUHU216HW,2013-01-07 14:20:00,
2013-01-07 06:25:00,36.2,31.1,30.01,NE,45,8.9,10.1,82,0.00,,,0.00,WUHU216HW,2013-01-07 14:25:00,
2013-01-07 06:30:00,36.5,31.2,30.01,East,90,4.3,8.9,81,0.00,,,0.00,WUHU216HW,2013-01-07 14:30:00,
2013-01-07 06:35:00,37.1,31.5,30.01,ENE,68,14.5,14.5,80,0.00,,,0.00,WUHU216HW,2013-01-07 14:35:00,
2013-01-07 06:40:00,37.3,31.3,30.00,ENE,68,7.2,14.5,79,0.00,,,0.00,WUHU216HW,2013-01-07 14:40:00,
2013-01-07 06:45:00,37.3,31.3,30.00,East,90,9.6,11.6,79,0.00,,,0.00,WUHU216HW,2013-01-07 14:45:00,
2013-01-07 06:50:00,37.3,31.3,30.00,East,90,9.8,13.0,79,0.00,,,0.00,WUHU216HW,2013-01-07 14:50:00,
2013-01-07 06:55:00,37.3,31.3,30.00,ENE,68,12.5,13.0,79,0.00,,,0.00,WUHU216HW,2013-01-07 14:55:00,
2013-01-07 07:00:00,37.3,31.3,30.00,NNE,23,6.3,12.5,79,0.00,,,0.00,WUHU216HW,2013-01-07 15:00:00,
2013-01-07 07:05:00,37.1,31.1,30.00,East,90,8.3,12.5,79,0.00,,,0.00,WUHU216HW,2013-01-07 15:05:00,
2013-01-07 07:10:00,36.9,31.3,30.00,NE,45,5.4,8.3,80,0.00,,,0.00,WUHU216HW,2013-01-07 15:10:00,
2013-01-07 07:15:00,36.9,31.3,30.00,ENE,68,4.3,8.9,80,0.00,,,0.00,WUHU216HW,2013-01-07 15:15:00,
2013-01-07 07:20:00,37.1,31.5,30.00,North,0,1.6,8.9,80,0.00,,,0.00,WUHU216HW,2013-01-07 15:20:00,
2013-01-07 07:25:00,36.9,31.3,30.01,NNE,23,2.5,6.9,80,0.00,,,0.00,WUHU216HW,2013-01-07 15:25:00,
2013-01-07 07:30:00,36.5,31.0,30.01,NE,45,2.0,4.0,80,0.00,,,0.00,WUHU216HW,2013-01-07 15:30:00,
2013-01-07 07:35:00,36.5,31.2,30.01,NNE,23,1.8,3.4,81,0.00,,,0.00,WUHU216HW,2013-01-07 15:35:00,
2013-01-07 07:40:00,36.4,31.1,30.01,North,0,3.4,4.5,81,0.00,,,0.00,WUHU216HW,2013-01-07 15:40:00,
2013-01-07 07:45:00,36.2,31.1,30.01,East,90,4.3,5.4,82,0.00,,,0.00,WUHU216HW,2013-01-07 15:45:00,
2013-01-07 07:50:00,36.5,31.5,30.02,NNW,338,2.2,5.6,82,0.00,,,0.00,WUHU216HW,2013-01-07 15:50:00,
2013-01-07 07:55:00,36.4,31.3,30.03,North,0,1.6,5.6,82,0.00,,,0.00,WUHU216HW,2013-01-07 15:55:00,
2013-01-07 08:00:00,36.5,31.5,30.03,NNE,23,1.8,4.7,82,0.00,,,0.00,WUHU216HW,2013-01-07 16:00:00,
2013-01-07 08:05:00,36.5,31.5,30.03,NNW,338,2.9,3.4,82,0.00,,,0.00,WUHU216HW,2013-01-07 16:05:00,
2013-01-07 08:10:00,36.7,31.7,30.03,East,90,2.7,3.4,82,0.00,,,0.00,WUHU216HW,2013-01-07 16:10:00,
2013-01-07 08:15:00,36.7,31.7,30.03,NE,45,4.9,4.9,82,0.00,,,0.00,WUHU216HW,2013-01-07 16:15:00,
2013-01-07 08:20:00,36.9,31.9,30.03,NNW,338,2.2,4.9,82,0.00,,,0.00,WUHU216HW,2013-01-07 16:20:00,
2013-01-07 08:25:00,36.7,31.7,30.03,NNW,338,1.1,4.9,82,0.00,,,0.00,WUHU216HW,2013-01-07 16:25:00,
2013-01-07 08:30:00,36.7,31.7,30.04,North,0,1.6,2.2,82,0.00,,,0.00,WUHU216HW,2013-01-07 16:30:00,
2013-01-07 08:35:00,36.9,31.9,30.03,NNE,23,0.9,1.8,82,0.00,,,0.00,WUHU216HW,2013-01-07 16:35:00,
2013-01-07 08:40:00,37.1,31.8,30.04,NNW,338,1.8,2.5,81,0.00,,,0.00,WUHU216HW,2013-01-07 16:40:00,
2013-01-07 08:45:00,37.3,32.0,30.04,ENE,68,2.5,3.6,81,0.00,,,0.00,WUHU216HW,2013-01-07 16:45:00,
2013-01-07 08:50:00,37.6,32.3,30.04,NE,45,1.1,4.7,81,0.00,,,0.00,WUHU216HW,2013-01-07 16:50:00,
2013-01-07 08:55:00,37.8,32.2,30.05,NNW,338,0.7,4.7,80,0.00,,,0.00,WUHU216HW,2013-01-07 16:55:00,
2013-01-07 09:00:00,37.8,32.2,30.03,ENE,68,2.5,2.7,80,0.00,,,0.00,WUHU216HW,2013-01-07 17:00:00,
2013-01-07 09:05:00,38.0,32.4,30.05,WNW,293,0.9,4.0,80,0.00,,,0.00,WUHU216HW,2013-01-07 17:05:00,
2013-01-07 09:10:00,38.0,32.4,30.04,North,0,6.0,6.0,80,0.00,,,0.00,WUHU216HW,2013-01-07 17:10:00,
2013-01-07 09:15:00,38.5,33.2,30.04,NNW,338,4.7,6.0,81,0.00,,,0.00,WUHU216HW,2013-01-07 17:15:00,
2013-01-07 09:20:00,39.8,34.1,30.05,NE,45,2.5,8.7,80,0.00,,,0.00,WUHU216HW,2013-01-07 17:20:00,
2013-01-07 09:25:00,40.3,34.7,30.05,ENE,68,3.6,8.7,80,0.00,,,0.00,WUHU216HW,2013-01-07 17:25:00,
2013-01-07 09:30:00,40.7,34.7,30.05,NNE,23,4.5,4.5,79,0.00,,,0.00,WUHU216HW,2013-01-07 17:30:00,
2013-01-07 09:35:00,41.6,35.5,30.06,NNW,338,6.3,6.3,79,0.00,,,0.00,WUHU216HW,2013-01-07 17:35:00,
2013-01-07 09:40:00,43.0,35.7,30.06,NNW,338,2.7,6.3,75,0.00,,,0.00,WUHU216HW,2013-01-07 17:40:00,
2013-01-07 09:45:00,44.5,36.4,30.07,ENE,68,8.3,8.3,73,0.00,,,0.00,WUHU216HW,2013-01-07 17:45:00,
2013-01-07 09:50:00,43.9,35.2,30.07,ENE,68,3.6,8.3,71,0.00,,,0.00,WUHU216HW,2013-01-07 17:50:00,
2013-01-07 09:55:00,43.2,34.5,30.07,East,90,4.3,8.3,71,0.00,,,0.00,WUHU216HW,2013-01-07 17:55:00,
2013-01-07 10:00:00,43.0,34.7,30.08,East,90,7.2,7.2,72,0.00,,,0.00,WUHU216HW,2013-01-07 18:00:00,
2013-01-07 10:05:00,43.6,35.2,30.08,ENE,68,2.5,7.2,72,0.00,,,0.00,WUHU216HW,2013-01-07 18:05:00,
2013-01-07 10:10:00,44.3,35.8,30.08,East,90,5.6,7.2,72,0.00,,,0.00,WUHU216HW,2013-01-07 18:10:00,
2013-01-07 10:15:00,44.3,35.8,30.08,East,90,4.9,5.6,72,0.00,,,0.00,WUHU216HW,2013-01-07 18:15:00,
2013-01-07 10:20:00,44.3,35.8,30.08,NNE,23,4.0,5.6,72,0.00,,,0.00,WUHU216HW,2013-01-07 18:20:00,
2013-01-07 10:25:00,44.6,36.2,30.08,NNE,23,4.7,4.9,72,0.00,,,0.00,WUHU216HW,2013-01-07 18:25:00,
2013-01-07 10:30:00,45.2,36.4,30.08,East,90,4.3,4.9,71,0.00,,,0.00,WUHU216HW,2013-01-07 18:30:00,
2013-01-07 10:35:00,45.4,36.6,30.08,NNE,23,6.7,6.7,71,0.00,,,0.00,WUHU216HW,2013-01-07 18:35:00,
2013-01-07 10:40:00,45.9,36.7,30.08,ENE,68,3.8,6.7,70,0.00,,,0.00,WUHU216HW,2013-01-07 18:40:00,
2013-01-07 10:45:00,46.1,36.6,30.08,NNE,23,1.3,6.7,69,0.00,,,0.00,WUHU216HW,2013-01-07 18:45:00,
2013-01-07 10:50:00,46.4,36.9,30.08,NNE,23,3.4,5.8,69,0.00,,,0.00,WUHU216HW,2013-01-07 18:50:00,
2013-01-07 10:55:00,47.0,37.0,30.08,NNE,23,10.5,10.5,68,0.00,,,0.00,WUHU216HW,2013-01-07 18:55:00,
2013-01-07 11:00:00,47.5,37.4,30.08,NNW,338,7.6,10.5,68,0.00,,,0.00,WUHU216HW,2013-01-07 19:00:00,
2013-01-07 11:05:00,47.7,37.3,30.07,North,0,4.5,10.5,67,0.00,,,0.00,WUHU216HW,2013-01-07 19:05:00,
2013-01-07 11:10:00,47.9,37.5,30.07,NNW,338,6.3,8.7,67,0.00,,,0.00,WUHU216HW,2013-01-07 19:10:00,
2013-01-07 11:15:00,47.9,37.5,30.06,NNW,338,5.4,8.7,67,0.09,,,0.09,WUHU216HW,2013-01-07 19:15:00,
2013-01-07 11:20:00,47.9,37.5,30.06,NNE,23,0.7,8.7,67,0.11,,,0.11,WUHU216HW,2013-01-07 19:20:00,
2013-01-07 11:25:00,47.9,37.0,30.06,North,0,4.0,5.4,66,0.11,,,0.11,WUHU216HW,2013-01-07 19:25:00,
2013-01-07 11:30:00,48.4,37.5,30.06,ENE,68,4.5,6.9,66,0.13,,,0.14,WUHU216HW,2013-01-07 19:30:00,
2013-01-07 11:35:00,49.0,37.7,30.06,NNW,338,6.7,6.9,65,0.13,,,0.14,WUHU216HW,2013-01-07 19:35:00,
2013-01-07 11:40:00,49.1,37.4,30.06,NNW,338,6.7,6.7,64,0.13,,,0.14,WUHU216HW,2013-01-07 19:40:00,
2013-01-07 11:45:00,49.0,37.3,30.06,NNW,338,9.4,9.4,64,0.13,,,0.14,WUHU216HW,2013-01-07 19:45:00,
2013-01-07 11:50:00,49.1,37.4,30.06,NW,315,3.4,9.4,64,0.13,,,0.14,WUHU216HW,2013-01-07 19:50:00,
2013-01-07 11:55:00,49.1,37.4,30.06,WNW,293,7.8,9.4,64,0.15,,,0.16,WUHU216HW,2013-01-07 19:55:00,
2013-01-07 12:00:00,49.1,37.4,30.05,WNW,293,8.7,8.7,64,0.15,,,0.16,WUHU216HW,2013-01-07 20:00:00,
2013-01-07 12:05:00,49.1,37.4,30.05,NNW,338,4.0,10.1,64,0.17,,,0.17,WUHU216HW,2013-01-07 20:05:00,
2013-01-07 12:10:00,49.1,37.4,30.05,NE,45,2.5,10.1,64,0.09,,,0.17,WUHU216HW,2013-01-07 20:10:00,
2013-01-07 12:15:00,49.0,37.3,30.05,NW,315,5.8,8.1,64,0.11,,,0.20,WUHU216HW,2013-01-07 20:15:00,
2013-01-07 12:20:00,48.8,37.5,30.05,NW,315,6.3,12.3,65,0.09,,,0.20,WUHU216HW,2013-01-07 20:20:00,
2013-01-07 12:25:00,49.0,37.3,30.05,WNW,293,6.9,12.3,64,0.09,,,0.20,WUHU216HW,2013-01-07 20:25:00,
2013-01-07 12:30:00,49.0,37.3,30.05,NNW,338,8.5,13.9,64,0.09,,,0.22,WUHU216HW,2013-01-07 20:30:00,
2013-01-07 12:35:00,49.3,37.6,30.05,NW,315,8.5,13.9,64,0.09,,,0.22,WUHU216HW,2013-01-07 20:35:00,
2013-01-07 12:40:00,49.5,37.8,30.05,NW,315,6.9,8.5,64,0.09,,,0.22,WUHU216HW,2013-01-07 20:40:00,
2013-01-07 12:45:00,49.3,37.6,30.05,NNW,338,9.8,9.8,64,0.11,,,0.24,WUHU216HW,2013-01-07 20:45:00,
2013-01-07 12:50:00,49.0,37.3,30.05,NW,315,6.9,9.8,64,0.11,,,0.24,WUHU216HW,2013-01-07 20:50:00,
2013-01-07 12:55:00,48.6,37.0,30.05,WNW,293,6.5,9.8,64,0.09,,,0.24,WUHU216HW,2013-01-07 20:55:00,
2013-01-07 13:00:00,48.6,37.0,30.05,NNW,338,5.1,6.9,64,0.11,,,0.27,WUHU216HW,2013-01-07 21:00:00,
2013-01-07 13:05:00,48.8,36.7,30.06,NNW,338,8.3,12.8,63,0.09,,,0.27,WUHU216HW,2013-01-07 21:05:00,
2013-01-07 13:10:00,49.0,37.3,30.06,North,0,14.5,14.5,64,0.09,,,0.27,WUHU216HW,2013-01-07 21:10:00,
2013-01-07 13:15:00,49.5,37.8,30.06,NNE,23,8.3,14.5,64,0.06,,,0.27,WUHU216HW,2013-01-07 21:15:00,
2013-01-07 13:20:00,50.2,38.1,30.07,NNW,338,2.5,14.5,63,0.06,,,0.27,WUHU216HW,2013-01-07 21:20:00,
2013-01-07 13:25:00,50.0,37.9,30.07,NNW,338,1.8,8.3,63,0.09,,,0.29,WUHU216HW,2013-01-07 21:25:00,
2013-01-07 13:30:00,50.0,37.9,30.07,NNW,338,1.8,2.5,63,0.06,,,0.29,WUHU216HW,2013-01-07 21:30:00,
2013-01-07 13:35:00,50.0,37.9,30.07,NNW,338,1.8,1.8,63,0.06,,,0.29,WUHU216HW,2013-01-07 21:35:00,
2013-01-07 13:40:00,50.8,38.2,30.07,NE,45,6.5,6.7,62,0.04,,,0.29,WUHU216HW,2013-01-07 21:40:00,
2013-01-07 13:45:00,51.3,38.7,30.07,East,90,1.8,6.7,62,0.04,,,0.29,WUHU216HW,2013-01-07 21:45:00,
2013-01-07 13:50:00,52.6,38.2,30.08,North,0,5.8,6.5,58,0.04,,,0.29,WUHU216HW,2013-01-07 21:50:00,
2013-01-07 13:55:00,52.0,38.5,30.07,NNE,23,5.4,5.8,60,0.02,,,0.29,WUHU216HW,2013-01-07 21:55:00,
2013-01-07 14:00:00,51.7,37.7,30.08,NNE,23,4.5,5.8,59,0.02,,,0.29,WUHU216HW,2013-01-07 22:00:00,
2013-01-07 14:05:00,51.1,37.7,30.07,North,0,11.4,11.4,60,0.02,,,0.29,WUHU216HW,2013-01-07 22:05:00,
2013-01-07 14:10:00,51.1,38.1,30.08,ENE,68,4.0,11.4,61,0.02,,,0.29,WUHU216HW,2013-01-07 22:10:00,
2013-01-07 14:15:00,51.3,37.9,30.08,East,90,3.8,11.4,60,0.02,,,0.29,WUHU216HW,2013-01-07 22:15:00,
2013-01-07 14:20:00,50.9,37.5,30.08,NE,45,6.0,6.0,60,0.02,,,0.29,WUHU216HW,2013-01-07 22:20:00,
2013-01-07 14:25:00,50.6,37.2,30.08,ENE,68,8.7,8.7,60,0.00,,,0.29,WUHU216HW,2013-01-07 22:25:00,
2013-01-07 14:30:00,50.0,37.1,30.08,ENE,68,13.2,13.2,61,0.00,,,0.29,WUHU216HW,2013-01-07 22:30:00,
2013-01-07 14:35:00,50.0,37.1,30.08,NE,45,8.7,13.2,61,0.00,,,0.29,WUHU216HW,2013-01-07 22:35:00,
2013-01-07 14:40:00,50.0,37.1,30.08,NE,45,5.8,13.2,61,0.00,,,0.29,WUHU216HW,2013-01-07 22:40:00,
2013-01-07 14:45:00,49.7,36.4,30.08,NNE,23,10.3,10.3,60,0.00,,,0.29,WUHU216HW,2013-01-07 22:45:00,
2013-01-07 14:50:00,49.5,36.3,30.08,ENE,68,7.4,10.3,60,0.00,,,0.29,WUHU216HW,2013-01-07 22:50:00,
2013-01-07 14:55:00,49.3,35.7,30.08,ENE,68,6.0,12.1,59,0.00,,,0.29,WUHU216HW,2013-01-07 22:55:00,
2013-01-07 15:00:00,49.1,35.5,30.08,East,90,6.3,12.1,59,0.00,,,0.29,WUHU216HW,2013-01-07 23:00:00,
2013-01-07 15:05:00,49.0,35.3,30.09,East,90,4.7,12.1,59,0.00,,,0.29,WUHU216HW,2013-01-07 23:05:00,
2013-01-07 15:10:00,49.3,35.7,30.09,NE,45,11.9,11.9,59,0.00,,,0.29,WUHU216HW,2013-01-07 23:10:00,
2013-01-07 15:15:00,51.5,35.7,30.10,North,0,4.3,11.9,55,0.00,,,0.29,WUHU216HW,2013-01-07 23:15:00,
2013-01-07 15:20:00,52.6,36.4,30.10,ENE,68,4.3,11.9,54,0.00,,,0.29,WUHU216HW,2013-01-07 23:20:00,
2013-01-07 15:25:00,53.6,35.9,30.11,NNE,23,6.3,6.9,51,0.00,,,0.29,WUHU216HW,2013-01-07 23:25:00,
2013-01-07 15:30:00,53.3,35.7,30.10,NNE,23,6.5,6.9,51,0.00,,,0.29,WUHU216HW,2013-01-07 23:30:00,
2013-01-07 15:35:00,50.9,35.3,30.11,NNE,23,5.4,8.1,55,0.00,,,0.29,WUHU216HW,2013-01-07 23:35:00,
2013-01-07 15:40:00,50.8,35.1,30.11,North,0,8.3,8.3,55,0.00,,,0.29,WUHU216HW,2013-01-07 23:40:00,
2013-01-07 15:45:00,50.6,35.4,30.11,North,0,7.8,13.0,56,0.00,,,0.29,WUHU216HW,2013-01-07 23:45:00,
2013-01-07 15:50:00,50.2,35.6,30.11,NNE,23,4.3,13.0,57,0.00,,,0.29,WUHU216HW,2013-01-07 23:50:00,
2013-01-07 15:55:00,50.0,35.4,30.11,North,0,9.2,9.2,57,0.00,,,0.29,WUHU216HW,2013-01-07 23:55:00,
2013-01-07 16:00:00,49.7,35.0,30.11,ENE,68,4.3,9.2,57,0.00,,,0.29,WUHU216HW,2013-01-08 00:00:00,
2013-01-07 16:05:00,49.1,35.0,30.10,NE,45,6.3,9.2,58,0.00,,,0.29,WUHU216HW,2013-01-08 00:05:00,
2013-01-07 16:10:00,48.6,35.5,30.10,NE,45,6.9,11.2,60,0.00,,,0.29,WUHU216HW,2013-01-08 00:10:00,
2013-01-07 16:15:00,48.1,35.3,30.09,ENE,68,6.0,11.2,61,0.00,,,0.29,WUHU216HW,2013-01-08 00:15:00,
2013-01-07 16:20:00,47.5,35.2,30.09,North,0,7.8,9.8,62,0.00,,,0.29,WUHU216HW,2013-01-08 00:20:00,
2013-01-07 16:25:00,47.3,35.4,30.09,NNE,23,4.0,9.8,63,0.00,,,0.29,WUHU216HW,2013-01-08 00:25:00,
2013-01-07 16:30:00,47.2,34.8,30.09,ENE,68,2.5,8.5,62,0.00,,,0.29,WUHU216HW,2013-01-08 00:30:00,
2013-01-07 16:35:00,47.3,34.6,30.09,East,90,4.5,5.8,61,0.00,,,0.29,WUHU216HW,2013-01-08 00:35:00,
2013-01-07 16:40:00,47.2,34.4,30.09,NNE,23,9.8,9.8,61,0.00,,,0.29,WUHU216HW,2013-01-08 00:40:00,
2013-01-07 16:45:00,47.5,34.7,30.10,North,0,13.4,14.3,61,0.00,,,0.29,WUHU216HW,2013-01-08 00:45:00,
2013-01-07 16:50:00,47.3,34.6,30.10,NNE,23,7.6,14.3,61,0.00,,,0.29,WUHU216HW,2013-01-08 00:50:00,
2013-01-07 16:55:00,47.0,34.2,30.11,NNW,338,9.2,13.4,61,0.00,,,0.29,WUHU216HW,2013-01-08 00:55:00,
2013-01-07 17:00:00,47.2,34.4,30.11,North,0,4.3,9.6,61,0.00,,,0.29,WUHU216HW,2013-01-08 01:00:00,
2013-01-07 17:05:00,46.8,34.0,30.11,North,0,7.4,9.6,61,0.00,,,0.29,WUHU216HW,2013-01-08 01:05:00,
2013-01-07 17:10:00,46.6,34.3,30.10,North,0,7.6,8.7,62,0.00,,,0.29,WUHU216HW,2013-01-08 01:10:00,
2013-01-07 17:15:00,46.4,33.7,30.10,NNE,23,6.3,8.7,61,0.00,,,0.29,WUHU216HW,2013-01-08 01:15:00,
2013-01-07 17:20:00,46.4,33.7,30.10,NNW,338,12.1,12.1,61,0.00,,,0.29,WUHU216HW,2013-01-08 01:20:00,
2013-01-07 17:25:00,46.8,33.2,30.11,North,0,9.2,12.1,59,0.00,,,0.29,WUHU216HW,2013-01-08 01:25:00,
2013-01-07 17:30:00,47.2,34.0,30.11,NNW,338,5.4,13.2,60,0.00,,,0.29,WUHU216HW,2013-01-08 01:30:00,
2013-01-07 17:35:00,46.8,33.2,30.11,NNW,338,6.3,13.2,59,0.00,,,0.29,WUHU216HW,2013-01-08 01:35:00,
2013-01-07 17:40:00,46.8,32.8,30.11,NNW,338,5.8,6.5,58,0.00,,,0.29,WUHU216HW,2013-01-08 01:40:00,
2013-01-07 17:45:00,47.0,32.5,30.11,North,0,5.6,6.5,57,0.00,,,0.29,WUHU216HW,2013-01-08 01:45:00,
2013-01-07 17:50:00,46.6,32.1,30.11,NNE,23,5.6,7.4,57,0.00,,,0.29,WUHU216HW,2013-01-08 01:50:00,
2013-01-07 17:55:00,46.8,32.3,30.11,North,0,5.4,7.8,57,0.00,,,0.29,WUHU216HW,2013-01-08 01:55:00,
2013-01-07 18:00:00,46.6,32.6,30.11,North,0,8.9,8.9,58,0.00,,,0.29,WUHU216HW,2013-01-08 02:00:00,
2013-01-07 18:05:00,46.1,32.9,30.11,NNW,338,6.3,9.2,60,0.00,,,0.29,WUHU216HW,2013-01-08 02:05:00,
2013-01-07 18:10:00,45.7,33.4,30.11,NNW,338,8.1,9.2,62,0.00,,,0.29,WUHU216HW,2013-01-08 02:10:00,
2013-01-07 18:15:00,45.4,33.8,30.11,North,0,6.5,11.4,64,0.00,,,0.29,WUHU216HW,2013-01-08 02:15:00,
2013-01-07 18:20:00,45.4,33.8,30.11,North,0,9.2,11.4,64,0.00,,,0.29,WUHU216HW,2013-01-08 02:20:00,
2013-01-07 18:25:00,45.2,33.7,30.11,North,0,6.7,11.2,64,0.00,,,0.29,WUHU216HW,2013-01-08 02:25:00,
2013-01-07 18:30:00,45.2,33.7,30.12,NW,315,9.2,10.3,64,0.00,,,0.29,WUHU216HW,2013-01-08 02:30:00,
2013-01-07 18:35:00,45.2,33.7,30.12,North,0,2.9,9.2,64,0.00,,,0.29,WUHU216HW,2013-01-08 02:35:00,
2013-01-07 18:40:00,45.2,33.3,30.12,NNE,23,6.5,9.2,63,0.00,,,0.29,WUHU216HW,2013-01-08 02:40:00,
2013-01-07 18:45:00,45.5,33.3,30.11,NE,45,6.0,7.2,62,0.00,,,0.29,WUHU216HW,2013-01-08 02:45:00,
2013-01-07 18:50:00,45.5,32.9,30.12,ENE,68,3.6,8.7,61,0.00,,,0.29,WUHU216HW,2013-01-08 02:50:00,
2013-01-07 18:55:00,45.7,32.7,30.12,NNE,23,5.6,8.7,60,0.00,,,0.29,WUHU216HW,2013-01-08 02:55:00,
2013-01-07 19:00:00,45.5,32.5,30.11,NNW,338,0.2,6.0,60,0.00,,,0.29,WUHU216HW,2013-01-08 03:00:00,
2013-01-07 19:05:00,45.2,32.1,30.12,East,90,6.0,6.0,60,0.00,,,0.29,WUHU216HW,2013-01-08 03:05:00,
2013-01-07 19:10:00,45.7,31.8,30.11,NNW,338,5.4,6.0,58,0.00,,,0.29,WUHU216HW,2013-01-08 03:10:00,
2013-01-07 19:15:00,45.5,31.6,30.12,NNW,338,6.3,6.3,58,0.00,,,0.29,WUHU216HW,2013-01-08 03:15:00,
2013-01-07 19:20:00,45.4,31.4,30.12,East,90,2.9,6.5,58,0.00,,,0.29,WUHU216HW,2013-01-08 03:20:00,
2013-01-07 19:25:00,45.2,31.2,30.11,NE,45,4.7,6.5,58,0.00,,,0.29,WUHU216HW,2013-01-08 03:25:00,
2013-01-07 19:30:00,45.5,30.7,30.11,NNW,338,7.8,7.8,56,0.00,,,0.29,WUHU216HW,2013-01-08 03:30:00,
2013-01-07 19:35:00,45.7,30.9,30.11,North,0,5.4,7.8,56,0.00,,,0.29,WUHU216HW,2013-01-08 03:35:00,
2013-01-07 19:40:00,45.7,31.3,30.11,WNW,293,7.8,12.8,57,0.00,,,0.29,WUHU216HW,2013-01-08 03:40:00,
2013-01-07 19:45:00,45.5,31.6,30.12,NNE,23,6.3,12.8,58,0.00,,,0.29,WUHU216HW,2013-01-08 03:45:00,
2013-01-07 19:50:00,45.4,31.9,30.13,NNE,23,3.4,7.8,59,0.00,,,0.29,WUHU216HW,2013-01-08 03:50:00,
2013-01-07 19:55:00,45.2,32.1,30.13,NNW,338,7.4,7.4,60,0.00,,,0.29,WUHU216HW,2013-01-08 03:55:00,
2013-01-07 20:00:00,45.0,32.4,30.13,East,90,3.4,7.4,61,0.00,,,0.29,WUHU216HW,2013-01-08 04:00:00,
2013-01-07 20:05:00,44.8,32.6,30.13,North,0,8.9,8.9,62,0.00,,,0.29,WUHU216HW,2013-01-08 04:05:00,
2013-01-07 20:10:00,45.0,32.8,30.13,ENE,68,6.3,8.9,62,0.00,,,0.29,WUHU216HW,2013-01-08 04:10:00,
2013-01-07 20:15:00,44.8,32.9,30.13,North,0,5.1,8.9,63,0.00,,,0.29,WUHU216HW,2013-01-08 04:15:00,
2013-01-07 20:20:00,44.6,32.9,30.12,NE,45,6.3,6.3,63,0.00,,,0.29,WUHU216HW,2013-01-08 04:20:00,
2013-01-07 20:25:00,44.6,32.9,30.13,ENE,68,4.7,6.3,63,0.00,,,0.29,WUHU216HW,2013-01-08 04:25:00,
2013-01-07 20:30:00,44.5,33.0,30.12,ENE,68,4.9,6.3,64,0.00,,,0.29,WUHU216HW,2013-01-08 04:30:00,
2013-01-07 20:35:00,44.8,32.6,30.13,NNE,23,8.9,8.9,62,0.00,,,0.29,WUHU216HW,2013-01-08 04:35:00,
2013-01-07 20:40:00,45.4,33.1,30.12,NNE,23,3.4,8.9,62,0.00,,,0.29,WUHU216HW,2013-01-08 04:40:00,
2013-01-07 20:45:00,45.2,33.0,30.13,NNW,338,4.7,8.9,62,0.00,,,0.29,WUHU216HW,2013-01-08 04:45:00,
2013-01-07 20:50:00,44.8,32.9,30.13,NNW,338,4.0,4.7,63,0.00,,,0.29,WUHU216HW,2013-01-08 04:50:00,
2013-01-07 20:55:00,44.5,32.7,30.12,NNW,338,5.4,5.4,63,0.00,,,0.29,WUHU216HW,2013-01-08 04:55:00,
2013-01-07 21:00:00,44.6,33.2,30.12,ENE,68,4.0,6.7,64,0.00,,,0.29,WUHU216HW,2013-01-08 05:00:00,
2013-01-07 21:05:00,44.6,33.6,30.13,NNE,23,9.2,9.2,65,0.00,,,0.29,WUHU216HW,2013-01-08 05:05:00,
2013-01-07 21:10:00,44.8,33.4,30.13,NNE,23,4.0,9.2,64,0.00,,,0.29,WUHU216HW,2013-01-08 05:10:00,
2013-01-07 21:15:00,44.8,33.8,30.13,NW,315,2.7,9.2,65,0.00,,,0.29,WUHU216HW,2013-01-08 05:15:00,
2013-01-07 21:20:00,44.3,33.2,30.13,East,90,2.2,5.1,65,0.00,,,0.29,WUHU216HW,2013-01-08 05:20:00,
2013-01-07 21:25:00,43.9,32.9,30.12,NNE,23,10.5,13.9,65,0.00,,,0.29,WUHU216HW,2013-01-08 05:25:00,
2013-01-07 21:30:00,44.3,33.2,30.13,ENE,68,9.2,13.9,65,0.00,,,0.29,WUHU216HW,2013-01-08 05:30:00,
2013-01-07 21:35:00,44.5,33.4,30.13,ENE,68,4.7,10.7,65,0.00,,,0.29,WUHU216HW,2013-01-08 05:35:00,
2013-01-07 21:40:00,44.5,33.4,30.14,NE,45,4.3,9.2,65,0.00,,,0.29,WUHU216HW,2013-01-08 05:40:00,
2013-01-07 21:45:00,44.6,33.2,30.14,NNE,23,2.9,7.6,64,0.00,,,0.29,WUHU216HW,2013-01-08 05:45:00,
2013-01-07 21:50:00,45.0,33.1,30.14,North,0,9.6,9.6,63,0.00,,,0.29,WUHU216HW,2013-01-08 05:50:00,
2013-01-07 21:55:00,45.0,32.8,30.14,NNE,23,6.9,9.6,62,0.00,,,0.29,WUHU216HW,2013-01-08 05:55:00,
2013-01-07 22:00:00,45.2,33.0,30.14,NNE,23,9.4,9.6,62,0.00,,,0.29,WUHU216HW,2013-01-08 06:00:00,
2013-01-07 22:05:00,45.0,32.8,30.14,NNE,23,5.6,9.4,62,0.00,,,0.29,WUHU216HW,2013-01-08 06:05:00,
2013-01-07 22:10:00,45.0,32.4,30.13,NNW,338,4.9,9.4,61,0.00,,,0.29,WUHU216HW,2013-01-08 06:10:00,
2013-01-07 22:15:00,44.8,32.9,30.13,NE,45,7.6,12.8,63,0.00,,,0.29,WUHU216HW,2013-01-08 06:15:00,
2013-01-07 22:20:00,44.8,32.9,30.14,NE,45,2.5,12.8,63,0.00,,,0.29,WUHU216HW,2013-01-08 06:20:00,
2013-01-07 22:25:00,44.6,32.9,30.14,NNE,23,6.5,7.6,63,0.00,,,0.29,WUHU216HW,2013-01-08 06:25:00,
2013-01-07 22:30:00,44.6,32.9,30.14,NNW,338,3.4,6.5,63,0.00,,,0.29,WUHU216HW,2013-01-08 06:30:00,
2013-01-07 22:35:00,44.3,32.9,30.14,NNE,23,6.0,6.5,64,0.00,,,0.29,WUHU216HW,2013-01-08 06:35:00,
2013-01-07 22:40:00,44.1,32.7,30.14,NNW,338,5.1,6.9,64,0.00,,,0.29,WUHU216HW,2013-01-08 06:40:00,
2013-01-07 22:45:00,44.1,32.3,30.14,North,0,3.4,6.9,63,0.00,,,0.29,WUHU216HW,2013-01-08 06:45:00,
2013-01-07 22:50:00,44.3,32.0,30.14,NW,315,14.5,14.5,62,0.00,,,0.29,WUHU216HW,2013-01-08 06:50:00,
2013-01-07 22:55:00,44.3,32.5,30.14,NE,45,6.0,14.5,63,0.00,,,0.29,WUHU216HW,2013-01-08 06:55:00,
2013-01-07 23:00:00,44.3,32.5,30.14,NNE,23,5.6,14.5,63,0.00,,,0.29,WUHU216HW,2013-01-08 07:00:00,
2013-01-07 23:05:00,44.3,32.5,30.14,NNW,338,5.8,7.6,63,0.00,,,0.29,WUHU216HW,2013-01-08 07:05:00,
2013-01-07 23:10:00,44.1,32.3,30.14,NNW,338,2.9,7.6,63,0.00,,,0.29,WUHU216HW,2013-01-08 07:10:00,
2013-01-07 23:15:00,43.9,32.1,30.14,North,0,2.9,5.8,63,0.00,,,0.29,WUHU216HW,2013-01-08 07:15:00,
2013-01-07 23:20:00,43.9,32.1,30.14,NE,45,4.5,4.7,63,0.00,,,0.29,WUHU216HW,2013-01-08 07:20:00,
2013-01-07 23:25:00,43.9,32.1,30.15,NW,315,4.0,6.7,63,0.00,,,0.29,WUHU216HW,2013-01-08 07:25:00,
2013-01-07 23:30:00,43.9,32.5,30.15,NW,315,1.3,6.7,64,0.00,,,0.29,WUHU216HW,2013-01-08 07:30:00,
2013-01-07 23:35:00,43.7,32.3,30.15,North,0,6.5,6.5,64,0.00,,,0.29,WUHU216HW,2013-01-08 07:35:00,
2013-01-07 23:40:00,43.9,32.1,30.15,North,0,9.2,9.2,63,0.00,,,0.29,WUHU216HW,2013-01-08 07:40:00,
2013-01-07 23:45:00,43.9,32.1,30.14,NW,315,3.1,9.2,63,0.00,,,0.29,WUHU216HW,2013-01-08 07:45:00,
2013-01-07 23:50:00,43.7,32.0,30.14,NNW,338,3.6,9.2,63,0.00,,,0.29,WUHU216HW,2013-01-08 07:50:00,
2013-01-07 23:55:00,43.7,32.3,30.14,WNW,293,1.3,3.6,64,0.00,,,0.29,WUHU216HW,2013-01-08 07:55:00,